createdAt,value
2023-04-14T00:00:25.144Z,0.00
2023-04-14T00:01:25.132Z,0.00
2023-04-14T00:02:25.216Z,0.00
2023-04-14T00:03:25.239Z,0.00
2023-04-14T00:04:25.221Z,0.00
2023-04-14T00:05:25.111Z,0.00
2023-04-14T00:06:25.057Z,0.00
2023-04-14T00:07:25.049Z,0.00
2023-04-14T00:08:25.058Z,0.00
2023-04-14T00:09:25.046Z,0.00
2023-04-14T00:10:25.011Z,0.00
2023-04-14T00:11:25.035Z,0.00
2023-04-14T00:12:24.989Z,0.00
2023-04-14T00:13:24.988Z,0.00
2023-04-14T00:14:24.967Z,0.00
2023-04-14T00:15:24.958Z,0.00
2023-04-14T00:16:24.996Z,0.00
2023-04-14T00:17:25.008Z,0.00
2023-04-14T00:18:24.950Z,0.00
2023-04-14T00:19:24.941Z,0.00
2023-04-14T00:20:24.933Z,0.00
2023-04-14T00:21:24.892Z,0.00
2023-04-14T00:22:24.878Z,0.00
2023-04-14T00:23:24.883Z,0.00
2023-04-14T00:24:24.875Z,0.00
2023-04-14T00:25:24.864Z,0.00
2023-04-14T00:26:24.857Z,0.00
2023-04-14T00:27:24.840Z,0.00
2023-04-14T00:28:24.870Z,0.00
2023-04-14T00:29:24.809Z,0.00
2023-04-14T00:30:24.809Z,0.00
2023-04-14T00:31:24.857Z,0.00
2023-04-14T00:32:24.816Z,0.00
2023-04-14T00:33:24.772Z,0.00
2023-04-14T00:34:24.761Z,0.00
2023-04-14T00:35:24.747Z,0.00
2023-04-14T00:36:24.758Z,0.00
2023-04-14T00:37:24.722Z,0.00
2023-04-14T00:38:24.711Z,0.00
2023-04-14T00:39:24.706Z,0.00
2023-04-14T00:40:24.689Z,0.00
2023-04-14T00:41:24.674Z,0.00
2023-04-14T00:42:24.667Z,0.00
2023-04-14T00:43:24.673Z,0.00
2023-04-14T00:44:24.631Z,0.00
2023-04-14T00:45:24.625Z,0.00
2023-04-14T00:46:24.671Z,0.00
2023-04-14T00:47:24.646Z,0.00
2023-04-14T00:48:24.619Z,0.00
2023-04-14T00:49:24.590Z,0.00
2023-04-14T00:50:24.581Z,0.00
2023-04-14T00:51:24.587Z,0.00
2023-04-14T00:52:24.592Z,0.00
2023-04-14T00:53:24.540Z,0.00
2023-04-14T00:54:24.520Z,0.00
2023-04-14T00:55:24.518Z,0.00
2023-04-14T00:56:24.518Z,0.00
2023-04-14T00:57:24.505Z,0.00
2023-04-14T00:58:24.480Z,0.00
2023-04-14T00:59:24.484Z,0.00
2023-04-14T01:00:24.458Z,0.00
2023-04-14T01:01:24.494Z,0.00
2023-04-14T01:02:24.620Z,0.00
2023-04-14T01:03:24.685Z,0.00
2023-04-14T01:04:29.271Z,0.00
2023-04-14T01:05:25.449Z,0.00
2023-04-14T01:06:24.405Z,0.00
2023-04-14T01:07:24.396Z,0.00
2023-04-14T01:08:24.453Z,0.00
2023-04-14T01:09:24.357Z,0.00
2023-04-14T01:10:24.354Z,0.00
2023-04-14T01:11:24.354Z,0.00
2023-04-14T01:12:24.321Z,0.00
2023-04-14T01:13:24.314Z,0.00
2023-04-14T01:14:24.312Z,0.00
2023-04-14T01:15:24.307Z,0.00
2023-04-14T01:16:24.307Z,0.00
2023-04-14T01:17:24.276Z,0.00
2023-04-14T01:18:24.274Z,0.00
2023-04-14T01:19:24.254Z,0.00
2023-04-14T01:20:24.235Z,0.00
2023-04-14T01:21:24.217Z,0.00
2023-04-14T01:22:24.230Z,0.00
2023-04-14T01:23:24.218Z,0.00
2023-04-14T01:24:24.226Z,0.00
2023-04-14T01:25:24.181Z,0.00
2023-04-14T01:26:24.190Z,0.00
2023-04-14T01:27:24.162Z,0.00
2023-04-14T01:28:24.163Z,0.00
2023-04-14T01:29:24.136Z,0.00
2023-04-14T01:30:24.116Z,0.00
2023-04-14T01:31:24.139Z,0.00
2023-04-14T01:32:24.107Z,0.00
2023-04-14T01:33:24.086Z,0.00
2023-04-14T01:34:24.087Z,0.00
2023-04-14T01:35:24.060Z,0.00
2023-04-14T01:36:24.066Z,0.00
2023-04-14T01:37:24.041Z,0.00
2023-04-14T01:38:24.032Z,0.00
2023-04-14T01:39:24.022Z,0.00
2023-04-14T01:40:24.044Z,0.00
2023-04-14T01:41:23.995Z,0.00
2023-04-14T01:42:24.011Z,0.00
2023-04-14T01:43:23.991Z,0.00
2023-04-14T01:44:23.979Z,0.00
2023-04-14T01:45:23.985Z,0.00
2023-04-14T01:46:23.955Z,0.00
2023-04-14T01:47:23.974Z,0.00
2023-04-14T01:48:23.927Z,0.00
2023-04-14T01:49:23.952Z,0.00
2023-04-14T01:50:23.948Z,0.00
2023-04-14T01:51:23.889Z,0.00
2023-04-14T01:52:23.871Z,0.00
2023-04-14T01:53:23.872Z,0.00
2023-04-14T01:54:23.864Z,0.00
2023-04-14T01:55:23.884Z,0.00
2023-04-14T01:56:23.887Z,0.00
2023-04-14T01:57:23.815Z,0.00
2023-04-14T01:58:23.804Z,0.00
2023-04-14T01:59:23.806Z,0.00
2023-04-14T02:00:23.799Z,0.00
2023-04-14T02:01:23.817Z,0.00
2023-04-14T02:02:23.918Z,0.00
2023-04-14T02:03:23.850Z,0.00
2023-04-14T02:04:23.761Z,0.00
2023-04-14T02:05:23.732Z,0.00
2023-04-14T02:06:23.734Z,0.00
2023-04-14T02:07:23.726Z,0.00
2023-04-14T02:08:23.706Z,0.00
2023-04-14T02:09:23.686Z,0.00
2023-04-14T02:10:23.718Z,0.00
2023-04-14T02:11:23.673Z,0.00
2023-04-14T02:12:23.706Z,0.00
2023-04-14T02:13:23.650Z,0.00
2023-04-14T02:14:23.627Z,0.00
2023-04-14T02:15:23.638Z,0.00
2023-04-14T02:16:23.699Z,0.00
2023-04-14T02:17:23.602Z,0.00
2023-04-14T02:18:23.588Z,0.00
2023-04-14T02:19:23.594Z,0.00
2023-04-14T02:20:23.558Z,0.00
2023-04-14T02:21:23.578Z,0.00
2023-04-14T02:22:23.536Z,0.00
2023-04-14T02:23:23.538Z,0.00
2023-04-14T02:24:23.513Z,0.00
2023-04-14T02:25:23.515Z,0.00
2023-04-14T02:26:23.494Z,0.00
2023-04-14T02:27:23.494Z,0.00
2023-04-14T02:28:23.512Z,0.00
2023-04-14T02:29:23.456Z,0.00
2023-04-14T02:30:23.472Z,0.00
2023-04-14T02:31:23.517Z,0.00
2023-04-14T02:32:23.451Z,0.00
2023-04-14T02:33:23.426Z,0.00
2023-04-14T02:34:23.402Z,0.00
2023-04-14T02:35:23.399Z,0.00
2023-04-14T02:36:23.400Z,0.00
2023-04-14T02:37:23.382Z,0.00
2023-04-14T02:38:23.361Z,0.00
2023-04-14T02:39:23.357Z,0.00
2023-04-14T02:40:23.356Z,0.00
2023-04-14T02:41:23.341Z,0.00
2023-04-14T02:42:23.314Z,0.00
2023-04-14T02:43:23.309Z,0.00
2023-04-14T02:44:23.342Z,0.00
2023-04-14T02:45:23.300Z,0.00
2023-04-14T02:46:23.294Z,0.00
2023-04-14T02:47:23.290Z,0.00
2023-04-14T02:48:23.270Z,0.00
2023-04-14T02:49:23.244Z,0.00
2023-04-14T02:50:23.250Z,0.00
2023-04-14T02:51:23.225Z,0.00
2023-04-14T02:52:23.198Z,0.00
2023-04-14T02:53:23.229Z,0.00
2023-04-14T02:54:23.183Z,0.00
2023-04-14T02:55:23.211Z,0.00
2023-04-14T02:56:23.161Z,0.00
2023-04-14T02:57:23.159Z,0.00
2023-04-14T02:58:23.137Z,0.00
2023-04-14T02:59:23.126Z,0.00
2023-04-14T03:00:23.160Z,0.00
2023-04-14T03:01:23.131Z,0.00
2023-04-14T03:02:23.175Z,0.00
2023-04-14T03:03:23.180Z,0.00
2023-04-14T03:04:23.153Z,0.00
2023-04-14T03:05:23.087Z,0.00
2023-04-14T03:06:23.050Z,0.00
2023-04-14T03:07:23.033Z,0.00
2023-04-14T03:08:23.035Z,0.00
2023-04-14T03:09:23.017Z,0.00
2023-04-14T03:10:23.000Z,0.00
2023-04-14T03:11:22.995Z,0.00
2023-04-14T03:12:22.985Z,0.00
2023-04-14T03:13:23.007Z,0.00
2023-04-14T03:14:22.962Z,0.00
2023-04-14T03:15:22.964Z,0.00
2023-04-14T03:16:23.063Z,0.00
2023-04-14T03:17:23.008Z,0.00
2023-04-14T03:18:22.933Z,0.00
2023-04-14T03:19:22.917Z,0.00
2023-04-14T03:20:22.907Z,0.00
2023-04-14T03:21:22.897Z,0.00
2023-04-14T03:22:22.863Z,0.00
2023-04-14T03:23:22.852Z,0.00
2023-04-14T03:24:22.877Z,0.00
2023-04-14T03:25:22.850Z,0.00
2023-04-14T03:26:22.832Z,0.00
2023-04-14T03:27:22.850Z,0.00
2023-04-14T03:28:22.803Z,0.00
2023-04-14T03:29:22.795Z,0.00
2023-04-14T03:30:22.790Z,0.00
2023-04-14T03:31:22.830Z,0.00
2023-04-14T03:32:22.803Z,0.00
2023-04-14T03:33:22.752Z,0.00
2023-04-14T03:34:22.747Z,0.00
2023-04-14T03:35:22.727Z,0.00
2023-04-14T03:36:22.706Z,0.00
2023-04-14T03:37:22.700Z,0.00
2023-04-14T03:38:22.689Z,0.00
2023-04-14T03:39:22.693Z,0.00
2023-04-14T03:40:22.668Z,0.00
2023-04-14T03:41:22.662Z,0.00
2023-04-14T03:42:22.638Z,0.00
2023-04-14T03:43:22.702Z,0.00
2023-04-14T03:44:22.631Z,0.00
2023-04-14T03:45:22.617Z,0.00
2023-04-14T03:46:22.638Z,0.00
2023-04-14T03:47:22.757Z,0.00
2023-04-14T03:48:22.660Z,0.00
2023-04-14T03:49:22.563Z,0.00
2023-04-14T03:50:22.551Z,0.00
2023-04-14T03:51:22.553Z,0.00
2023-04-14T03:52:22.541Z,0.00
2023-04-14T03:53:22.531Z,0.00
2023-04-14T03:54:22.526Z,0.00
2023-04-14T03:55:22.523Z,0.00
2023-04-14T03:56:22.482Z,0.00
2023-04-14T03:57:22.484Z,0.00
2023-04-14T03:58:22.484Z,0.00
2023-04-14T03:59:22.464Z,0.00
2023-04-14T04:00:22.448Z,0.00
2023-04-14T04:01:22.439Z,0.00
2023-04-14T04:02:22.788Z,0.00
2023-04-14T04:03:22.723Z,0.00
2023-04-14T04:04:22.519Z,0.00
2023-04-14T04:05:22.377Z,0.00
2023-04-14T04:06:22.388Z,0.00
2023-04-14T04:07:22.395Z,0.00
2023-04-14T04:08:22.344Z,0.00
2023-04-14T04:09:22.354Z,0.00
2023-04-14T04:10:22.338Z,0.00
2023-04-14T04:11:22.326Z,0.00
2023-04-14T04:12:22.319Z,0.00
2023-04-14T04:13:22.303Z,0.00
2023-04-14T04:14:22.284Z,0.00
2023-04-14T04:15:22.287Z,0.00
2023-04-14T04:16:22.310Z,0.00
2023-04-14T04:17:22.291Z,0.00
2023-04-14T04:18:22.250Z,0.00
2023-04-14T04:19:22.233Z,0.00
2023-04-14T04:20:22.244Z,0.00
2023-04-14T04:21:22.254Z,0.00
2023-04-14T04:22:22.189Z,0.00
2023-04-14T04:23:22.191Z,0.00
2023-04-14T04:24:22.164Z,0.00
2023-04-14T04:25:22.167Z,0.00
2023-04-14T04:26:22.147Z,0.00
2023-04-14T04:27:28.200Z,0.00
2023-04-14T04:28:23.137Z,0.00
2023-04-14T04:29:22.122Z,0.00
2023-04-14T04:30:22.116Z,0.00
2023-04-14T04:31:22.136Z,0.00
2023-04-14T04:32:22.268Z,0.00
2023-04-14T04:33:22.068Z,0.00
2023-04-14T04:34:22.118Z,0.00
2023-04-14T04:35:22.069Z,0.00
2023-04-14T04:36:22.064Z,0.00
2023-04-14T04:37:22.021Z,0.00
2023-04-14T04:38:22.022Z,5.62
2023-04-14T04:39:22.009Z,5.62
2023-04-14T04:40:22.008Z,5.62
2023-04-14T04:41:21.981Z,5.62
2023-04-14T04:42:21.966Z,5.62
2023-04-14T04:43:21.969Z,5.62
2023-04-14T04:44:21.945Z,5.62
2023-04-14T04:45:21.931Z,11.25
2023-04-14T04:46:21.978Z,11.25
2023-04-14T04:47:21.932Z,11.25
2023-04-14T04:48:21.912Z,11.25
2023-04-14T04:49:21.928Z,11.25
2023-04-14T04:50:21.905Z,11.25
2023-04-14T04:51:21.878Z,16.88
2023-04-14T04:52:21.960Z,16.88
2023-04-14T04:53:21.857Z,16.88
2023-04-14T04:54:21.842Z,16.88
2023-04-14T04:55:21.854Z,22.50
2023-04-14T04:56:21.833Z,22.50
2023-04-14T04:57:21.806Z,22.50
2023-04-14T04:58:21.783Z,22.50
2023-04-14T04:59:21.782Z,22.50
2023-04-14T05:00:21.775Z,28.12
2023-04-14T05:01:21.889Z,28.12
2023-04-14T05:02:21.840Z,28.12
2023-04-14T05:03:21.748Z,28.12
2023-04-14T05:04:21.850Z,33.75
2023-04-14T05:05:22.273Z,33.75
2023-04-14T05:06:21.755Z,33.75
2023-04-14T05:07:21.728Z,33.75
2023-04-14T05:08:21.717Z,39.38
2023-04-14T05:09:21.705Z,39.38
2023-04-14T05:10:21.663Z,39.38
2023-04-14T05:11:21.651Z,45.00
2023-04-14T05:12:21.644Z,45.00
2023-04-14T05:13:21.655Z,45.00
2023-04-14T05:14:21.643Z,45.00
2023-04-14T05:15:21.607Z,50.62
2023-04-14T05:16:21.630Z,50.62
2023-04-14T05:17:21.698Z,50.62
2023-04-14T05:18:21.607Z,56.25
2023-04-14T05:19:21.575Z,56.25
2023-04-14T05:20:21.560Z,56.25
2023-04-14T05:21:21.552Z,56.25
2023-04-14T05:22:21.535Z,61.88
2023-04-14T05:23:31.333Z,61.88
2023-04-14T05:24:21.528Z,61.88
2023-04-14T05:25:21.519Z,61.88
2023-04-14T05:26:44.668Z,67.50
2023-04-14T05:27:22.502Z,67.50
2023-04-14T05:28:21.479Z,67.50
2023-04-14T05:29:21.473Z,67.50
2023-04-14T05:30:21.459Z,73.12
2023-04-14T05:31:21.490Z,73.12
2023-04-14T05:32:21.481Z,73.12
2023-04-14T05:33:21.409Z,73.12
2023-04-14T05:34:21.406Z,78.75
2023-04-14T05:35:21.403Z,78.75
2023-04-14T05:36:21.408Z,78.75
2023-04-14T05:37:21.363Z,78.75
2023-04-14T05:38:21.374Z,84.38
2023-04-14T05:39:21.378Z,84.38
2023-04-14T05:40:21.342Z,84.38
2023-04-14T05:41:21.326Z,84.38
2023-04-14T05:42:21.312Z,84.38
2023-04-14T05:43:21.309Z,90.00
2023-04-14T05:44:21.284Z,90.00
2023-04-14T05:45:21.281Z,90.00
2023-04-14T05:46:21.393Z,90.00
2023-04-14T05:47:21.307Z,90.00
2023-04-14T05:48:21.241Z,95.62
2023-04-14T05:49:21.348Z,95.62
2023-04-14T05:50:21.215Z,95.62
2023-04-14T05:51:21.345Z,95.62
2023-04-14T05:52:21.188Z,95.62
2023-04-14T05:53:21.195Z,101.25
2023-04-14T05:54:21.210Z,101.25
2023-04-14T05:55:21.222Z,101.25
2023-04-14T05:56:21.175Z,101.25
2023-04-14T05:57:21.160Z,101.25
2023-04-14T05:58:21.137Z,106.88
2023-04-14T05:59:21.139Z,106.88
2023-04-14T06:00:21.122Z,106.88
2023-04-14T06:01:21.253Z,106.88
2023-04-14T06:02:21.177Z,106.88
2023-04-14T06:03:21.304Z,106.88
2023-04-14T06:04:21.209Z,112.50
2023-04-14T06:05:21.068Z,112.50
2023-04-14T06:06:21.066Z,112.50
2023-04-14T06:07:21.041Z,112.50
2023-04-14T06:08:21.046Z,112.50
2023-04-14T06:09:21.036Z,112.50
2023-04-14T06:10:20.988Z,112.50
2023-04-14T06:11:21.030Z,118.12
2023-04-14T06:12:20.985Z,118.12
2023-04-14T06:13:20.975Z,118.12
2023-04-14T06:14:20.961Z,118.12
2023-04-14T06:15:20.958Z,118.12
2023-04-14T06:16:20.940Z,118.12
2023-04-14T06:17:20.956Z,118.12
2023-04-14T06:18:20.913Z,118.12
2023-04-14T06:19:20.906Z,123.75
2023-04-14T06:20:20.869Z,123.75
2023-04-14T06:21:20.882Z,123.75
2023-04-14T06:22:20.865Z,123.75
2023-04-14T06:23:20.862Z,123.75
2023-04-14T06:24:20.852Z,123.75
2023-04-14T06:25:20.848Z,123.75
2023-04-14T06:26:20.811Z,123.75
2023-04-14T06:27:20.856Z,123.75
2023-04-14T06:28:20.798Z,123.75
2023-04-14T06:29:20.780Z,129.38
2023-04-14T06:30:20.767Z,129.38
2023-04-14T06:31:20.855Z,129.38
2023-04-14T06:32:21.075Z,129.38
2023-04-14T06:33:20.753Z,129.38
2023-04-14T06:34:20.725Z,129.38
2023-04-14T06:35:32.535Z,129.38
2023-04-14T06:36:21.688Z,129.38
2023-04-14T06:37:20.703Z,129.38
2023-04-14T06:38:20.700Z,129.38
2023-04-14T06:39:20.660Z,129.38
2023-04-14T06:40:20.673Z,129.38
2023-04-14T06:41:20.641Z,129.38
2023-04-14T06:42:20.654Z,129.38
2023-04-14T06:43:20.692Z,129.38
2023-04-14T06:44:20.617Z,129.38
2023-04-14T06:45:20.623Z,129.38
2023-04-14T06:46:20.680Z,135.00
2023-04-14T06:47:20.681Z,135.00
2023-04-14T06:48:20.560Z,135.00
2023-04-14T06:49:20.564Z,135.00
2023-04-14T06:50:20.562Z,135.00
2023-04-14T06:51:20.562Z,135.00
2023-04-14T06:52:20.556Z,135.00
2023-04-14T06:53:20.643Z,135.00
2023-04-14T06:54:20.511Z,135.00
2023-04-14T06:55:20.530Z,135.00
2023-04-14T06:56:20.507Z,135.00
2023-04-14T06:57:20.459Z,135.00
2023-04-14T06:58:20.512Z,140.62
2023-04-14T06:59:20.499Z,140.62
2023-04-14T07:00:20.429Z,140.62
2023-04-14T07:01:20.471Z,140.62
2023-04-14T07:02:20.515Z,140.62
2023-04-14T07:03:20.420Z,140.62
2023-04-14T07:04:20.413Z,140.62
2023-04-14T07:05:20.378Z,140.62
2023-04-14T07:06:20.406Z,140.62
2023-04-14T07:07:20.352Z,140.62
2023-04-14T07:08:20.348Z,140.62
2023-04-14T07:09:20.339Z,140.62
2023-04-14T07:10:20.344Z,140.62
2023-04-14T07:11:20.310Z,146.25
2023-04-14T07:12:20.331Z,146.25
2023-04-14T07:13:20.298Z,146.25
2023-04-14T07:14:20.276Z,146.25
2023-04-14T07:15:20.321Z,146.25
2023-04-14T07:16:20.319Z,146.25
2023-04-14T07:17:20.255Z,146.25
2023-04-14T07:18:20.260Z,146.25
2023-04-14T07:19:20.251Z,146.25
2023-04-14T07:20:20.226Z,146.25
2023-04-14T07:21:20.218Z,146.25
2023-04-14T07:22:20.176Z,146.25
2023-04-14T07:23:20.196Z,146.25
2023-04-14T07:24:20.189Z,146.25
2023-04-14T07:25:20.168Z,146.25
2023-04-14T07:26:20.138Z,146.25
2023-04-14T07:27:20.145Z,146.25
2023-04-14T07:28:20.128Z,146.25
2023-04-14T07:29:20.123Z,146.25
2023-04-14T07:30:20.098Z,151.88
2023-04-14T07:31:20.258Z,151.88
2023-04-14T07:32:20.156Z,151.88
2023-04-14T07:33:20.071Z,151.88
2023-04-14T07:34:20.067Z,151.88
2023-04-14T07:35:20.077Z,151.88
2023-04-14T07:36:20.023Z,151.88
2023-04-14T07:37:20.032Z,151.88
2023-04-14T07:38:20.017Z,151.88
2023-04-14T07:39:22.569Z,151.88
2023-04-14T07:40:19.980Z,151.88
2023-04-14T07:41:19.994Z,151.88
2023-04-14T07:42:19.955Z,151.88
2023-04-14T07:43:20.001Z,151.88
2023-04-14T07:44:19.986Z,151.88
2023-04-14T07:45:19.921Z,151.88
2023-04-14T07:46:19.988Z,151.88
2023-04-14T07:47:20.002Z,151.88
2023-04-14T07:48:19.920Z,151.88
2023-04-14T07:49:19.937Z,151.88
2023-04-14T07:50:19.995Z,151.88
2023-04-14T07:51:19.960Z,151.88
2023-04-14T07:52:19.861Z,151.88
2023-04-14T07:53:19.829Z,151.88
2023-04-14T07:54:19.821Z,151.88
2023-04-14T07:55:19.829Z,151.88
2023-04-14T07:56:19.818Z,151.88
2023-04-14T07:57:19.833Z,157.50
2023-04-14T07:58:19.798Z,157.50
2023-04-14T07:59:19.774Z,157.50
2023-04-14T08:00:19.779Z,157.50
2023-04-14T08:01:19.770Z,157.50
2023-04-14T08:02:19.864Z,157.50
2023-04-14T08:03:19.913Z,157.50
2023-04-14T08:04:19.785Z,157.50
2023-04-14T08:05:19.759Z,157.50
2023-04-14T08:06:19.694Z,157.50
2023-04-14T08:07:19.683Z,157.50
2023-04-14T08:08:19.741Z,157.50
2023-04-14T08:09:19.688Z,157.50
2023-04-14T08:10:19.690Z,157.50
2023-04-14T08:11:19.676Z,157.50
2023-04-14T08:12:19.642Z,157.50
2023-04-14T08:13:19.612Z,157.50
2023-04-14T08:14:19.640Z,157.50
2023-04-14T08:15:19.602Z,157.50
2023-04-14T08:16:19.725Z,157.50
2023-04-14T08:17:19.615Z,157.50
2023-04-14T08:18:19.554Z,157.50
2023-04-14T08:19:19.573Z,157.50
2023-04-14T08:20:19.546Z,157.50
2023-04-14T08:21:19.522Z,157.50
2023-04-14T08:22:19.537Z,157.50
2023-04-14T08:23:19.498Z,157.50
2023-04-14T08:24:19.496Z,157.50
2023-04-14T08:25:19.483Z,157.50
2023-04-14T08:26:19.472Z,157.50
2023-04-14T08:27:19.464Z,157.50
2023-04-14T08:28:19.432Z,157.50
2023-04-14T08:29:19.424Z,157.50
2023-04-14T08:30:19.428Z,157.50
2023-04-14T08:31:19.478Z,157.50
2023-04-14T08:32:19.431Z,157.50
2023-04-14T08:33:19.397Z,157.50
2023-04-14T08:34:28.033Z,157.50
2023-04-14T08:35:35.926Z,157.50
2023-04-14T08:36:20.372Z,157.50
2023-04-14T08:37:19.361Z,157.50
2023-04-14T08:38:19.331Z,157.50
2023-04-14T08:39:19.322Z,157.50
2023-04-14T08:40:19.325Z,157.50
2023-04-14T08:41:19.358Z,157.50
2023-04-14T08:42:22.311Z,157.50
2023-04-14T08:43:19.303Z,157.50
2023-04-14T08:44:19.290Z,157.50
2023-04-14T08:45:19.259Z,157.50
2023-04-14T08:46:19.337Z,157.50
2023-04-14T08:47:19.249Z,157.50
2023-04-14T08:48:19.302Z,157.50
2023-04-14T08:49:19.209Z,163.12
2023-04-14T08:50:19.204Z,163.12
2023-04-14T08:51:19.258Z,163.12
2023-04-14T08:56:56.469Z,163.12
2023-04-14T08:57:56.481Z,163.12
2023-04-14T08:58:56.428Z,163.12
2023-04-14T08:59:56.438Z,163.12
2023-04-14T09:00:56.481Z,163.12
2023-04-14T09:01:56.717Z,163.12
2023-04-14T09:02:56.552Z,163.12
2023-04-14T09:03:56.488Z,163.12
2023-04-14T09:04:56.427Z,163.12
2023-04-14T09:05:56.352Z,163.12
2023-04-14T09:06:56.378Z,163.12
2023-04-14T09:07:56.347Z,163.12
2023-04-14T09:08:56.331Z,163.12
2023-04-14T09:09:56.310Z,163.12
2023-04-14T09:10:56.289Z,163.12
2023-04-14T09:11:56.306Z,163.12
2023-04-14T09:12:56.290Z,163.12
2023-04-14T09:13:56.287Z,163.12
2023-04-14T09:14:56.270Z,163.12
2023-04-14T09:15:56.261Z,163.12
2023-04-14T09:16:56.301Z,163.12
2023-04-14T09:17:56.269Z,163.12
2023-04-14T09:18:56.240Z,163.12
2023-04-14T09:20:37.619Z,163.12
2023-04-14T09:21:30.370Z,163.12
2023-04-14T09:21:57.472Z,163.12
2023-04-14T09:22:56.214Z,163.12
2023-04-14T09:23:56.143Z,163.12
2023-04-14T09:24:56.174Z,163.12
2023-04-14T09:25:56.143Z,163.12
2023-04-14T09:26:56.157Z,163.12
2023-04-14T09:27:56.115Z,163.12
2023-04-14T09:28:56.111Z,163.12
2023-04-14T09:29:56.096Z,168.75
2023-04-14T09:30:56.133Z,168.75
2023-04-14T09:31:56.076Z,168.75
2023-04-14T09:32:56.173Z,168.75
2023-04-14T09:33:56.086Z,168.75
2023-04-14T09:34:57.799Z,168.75
2023-04-14T09:35:56.046Z,168.75
2023-04-14T09:36:56.055Z,168.75
2023-04-14T09:37:56.013Z,168.75
2023-04-14T09:38:56.013Z,168.75
2023-04-14T09:39:55.990Z,163.12
2023-04-14T09:40:57.137Z,163.12
2023-04-14T09:41:55.994Z,163.12
2023-04-14T09:42:55.955Z,163.12
2023-04-14T09:43:56.001Z,163.12
2023-04-14T09:44:55.958Z,163.12
2023-04-14T09:45:56.029Z,163.12
2023-04-14T09:46:56.828Z,168.75
2023-04-14T09:47:55.929Z,168.75
2023-04-14T09:48:56.284Z,168.75
2023-04-14T09:49:55.888Z,168.75
2023-04-14T09:50:55.870Z,168.75
2023-04-14T09:51:55.858Z,168.75
2023-04-14T09:52:55.846Z,168.75
2023-04-14T09:53:55.868Z,168.75
2023-04-14T09:54:55.835Z,168.75
2023-04-14T09:55:55.835Z,168.75
2023-04-14T09:56:55.808Z,168.75
2023-04-14T09:57:55.782Z,168.75
2023-04-14T09:58:55.783Z,174.38
2023-04-14T09:59:55.771Z,174.38
2023-04-14T10:00:55.749Z,174.38
2023-04-14T10:01:55.836Z,180.00
2023-04-14T10:02:55.923Z,174.38
2023-04-14T10:03:55.791Z,174.38
2023-04-14T10:04:55.811Z,174.38
2023-04-14T10:05:55.695Z,174.38
2023-04-14T10:06:55.702Z,174.38
2023-04-14T10:07:55.724Z,174.38
2023-04-14T10:08:55.667Z,174.38
2023-04-14T10:09:55.675Z,180.00
2023-04-14T10:10:55.683Z,180.00
2023-04-14T10:11:55.631Z,180.00
2023-04-14T10:12:55.654Z,180.00
2023-04-14T10:13:55.636Z,180.00
2023-04-14T10:14:55.640Z,180.00
2023-04-14T10:15:55.649Z,180.00
2023-04-14T10:16:55.568Z,180.00
2023-04-14T10:17:55.642Z,180.00
2023-04-14T10:18:55.626Z,185.62
2023-04-14T10:19:55.554Z,185.62
2023-04-14T10:20:55.541Z,185.62
2023-04-14T10:21:55.505Z,185.62
2023-04-14T10:22:55.534Z,185.62
2023-04-14T10:23:55.513Z,185.62
2023-04-14T10:24:55.508Z,185.62
2023-04-14T10:25:55.477Z,185.62
2023-04-14T10:26:55.509Z,185.62
2023-04-14T10:27:55.487Z,185.62
2023-04-14T10:28:55.449Z,185.62
2023-04-14T10:29:55.442Z,185.62
2023-04-14T10:30:55.412Z,191.25
2023-04-14T10:31:55.472Z,185.62
2023-04-14T10:32:55.514Z,185.62
2023-04-14T10:33:55.455Z,185.62
2023-04-14T10:36:16.248Z,191.25
2023-04-14T10:37:16.255Z,191.25
2023-04-14T10:38:16.231Z,191.25
2023-04-14T10:39:16.227Z,191.25
2023-04-14T10:40:16.232Z,196.88
2023-04-14T10:41:16.220Z,196.88
2023-04-14T10:42:16.223Z,196.88
2023-04-14T10:43:16.172Z,196.88
2023-04-14T10:44:16.177Z,196.88
2023-04-14T10:45:16.164Z,196.88
2023-04-14T10:47:25.831Z,202.50
2023-04-14T10:48:25.707Z,202.50
2023-04-14T10:49:25.727Z,208.12
2023-04-14T10:50:25.690Z,208.12
2023-04-14T10:51:25.724Z,208.12
2023-04-14T10:52:25.668Z,208.12
2023-04-14T10:53:26.572Z,213.75
2023-04-14T10:54:25.663Z,213.75
2023-04-14T10:55:25.687Z,213.75
2023-04-14T10:56:25.604Z,213.75
2023-04-14T10:57:25.637Z,219.38
2023-04-14T10:58:25.716Z,219.38
2023-04-14T10:59:25.595Z,219.38
2023-04-14T11:00:25.598Z,225.00
2023-04-14T11:01:25.640Z,230.62
2023-04-14T11:02:25.682Z,230.62
2023-04-14T11:03:28.171Z,236.25
2023-04-14T11:04:25.691Z,236.25
2023-04-14T11:05:25.530Z,236.25
2023-04-14T11:06:25.525Z,241.88
2023-04-14T11:07:25.514Z,241.88
2023-04-14T11:08:25.489Z,241.88
2023-04-14T11:09:25.489Z,247.50
2023-04-14T11:10:25.472Z,241.88
2023-04-14T11:11:25.477Z,247.50
2023-04-14T11:12:25.440Z,247.50
2023-04-14T11:13:25.458Z,247.50
2023-04-14T11:14:25.409Z,247.50
2023-04-14T11:15:25.397Z,247.50
2023-04-14T11:16:25.420Z,247.50
2023-04-14T11:17:25.457Z,253.12
2023-04-14T11:18:25.429Z,253.12
2023-04-14T11:19:25.360Z,253.12
2023-04-14T11:20:25.351Z,258.75
2023-04-14T11:21:25.338Z,258.75
2023-04-14T11:22:25.324Z,258.75
2023-04-14T11:23:25.342Z,258.75
2023-04-14T11:24:25.335Z,264.38
2023-04-14T11:25:25.413Z,264.38
2023-04-14T11:26:25.293Z,270.00
2023-04-14T11:27:25.308Z,275.62
2023-04-14T11:28:25.272Z,281.25
2023-04-14T11:29:25.287Z,281.25
2023-04-14T11:30:25.270Z,281.25
2023-04-14T11:31:25.240Z,281.25
2023-04-14T11:32:25.340Z,281.25
2023-04-14T11:33:28.259Z,286.88
2023-04-14T11:34:25.291Z,286.88
2023-04-14T11:35:25.225Z,286.88
2023-04-14T11:36:25.231Z,286.88
2023-04-14T11:37:25.165Z,286.88
2023-04-14T11:38:25.203Z,286.88
2023-04-14T11:39:26.065Z,286.88
2023-04-14T11:40:25.169Z,292.50
2023-04-14T11:41:25.132Z,303.75
2023-04-14T11:42:25.132Z,309.38
2023-04-14T11:43:25.269Z,315.00
2023-04-14T11:44:25.076Z,320.62
2023-04-14T11:45:25.098Z,315.00
2023-04-14T11:46:25.163Z,320.62
2023-04-14T11:47:25.077Z,320.62
2023-04-14T11:48:25.029Z,326.25
2023-04-14T11:49:25.053Z,326.25
2023-04-14T11:50:25.060Z,320.62
2023-04-14T11:51:25.088Z,326.25
2023-04-14T11:52:25.016Z,326.25
2023-04-14T11:53:24.972Z,331.88
2023-04-14T11:54:25.000Z,331.88
2023-04-14T11:55:24.960Z,337.50
2023-04-14T11:56:25.001Z,348.75
2023-04-14T11:57:24.979Z,343.12
2023-04-14T11:58:24.977Z,343.12
2023-04-14T11:59:24.955Z,343.12
2023-04-14T12:00:24.941Z,348.75
2023-04-14T12:01:24.927Z,348.75
2023-04-14T12:02:24.977Z,348.75
2023-04-14T12:03:24.951Z,348.75
2023-04-14T12:04:25.009Z,331.88
2023-04-14T12:05:24.958Z,360.00
2023-04-14T12:06:24.879Z,360.00
2023-04-14T12:07:24.830Z,360.00
2023-04-14T12:08:24.895Z,360.00
2023-04-14T12:09:24.826Z,309.38
2023-04-14T12:10:24.865Z,320.62
2023-04-14T12:11:24.809Z,365.62
2023-04-14T12:12:25.980Z,360.00
2023-04-14T12:13:24.791Z,354.38
2023-04-14T12:14:24.777Z,348.75
2023-04-14T12:15:24.790Z,348.75
2023-04-14T12:16:24.854Z,343.12
2023-04-14T12:17:24.782Z,343.12
2023-04-14T12:18:24.736Z,343.12
2023-04-14T12:19:24.701Z,343.12
2023-04-14T12:20:24.731Z,348.75
2023-04-14T12:21:24.678Z,354.38
2023-04-14T12:22:24.674Z,348.75
2023-04-14T12:23:24.673Z,365.62
2023-04-14T12:24:24.647Z,371.25
2023-04-14T12:25:24.652Z,382.50
2023-04-14T12:26:24.626Z,388.12
2023-04-14T12:27:24.649Z,388.12
2023-04-14T12:28:24.602Z,371.25
2023-04-14T12:29:24.616Z,309.38
2023-04-14T12:30:24.577Z,298.12
2023-04-14T12:31:24.588Z,292.50
2023-04-14T12:32:24.578Z,292.50
2023-04-14T12:33:24.737Z,292.50
2023-04-14T12:34:24.552Z,292.50
2023-04-14T12:35:24.548Z,292.50
2023-04-14T12:36:29.746Z,298.12
2023-04-14T12:37:25.497Z,303.75
2023-04-14T12:38:24.489Z,376.88
2023-04-14T12:39:24.480Z,393.75
2023-04-14T12:40:24.488Z,382.50
2023-04-14T12:41:24.473Z,393.75
2023-04-14T12:42:24.442Z,388.12
2023-04-14T12:43:24.437Z,382.50
2023-04-14T12:44:24.470Z,382.50
2023-04-14T12:45:24.429Z,376.88
2023-04-14T12:46:24.412Z,376.88
2023-04-14T12:47:24.431Z,382.50
2023-04-14T12:48:25.108Z,388.12
2023-04-14T12:49:24.471Z,331.88
2023-04-14T12:50:24.354Z,388.12
2023-04-14T12:51:24.412Z,388.12
2023-04-14T12:52:24.332Z,388.12
2023-04-14T12:53:24.311Z,393.75
2023-04-14T12:54:27.090Z,393.75
2023-04-14T12:55:25.092Z,388.12